sensor_id;sensor_type;location;lat;lon;timestamp;P1;durP1;ratioP1;P2;durP2;ratioP2
53309;SDS011;39197;53.200;5.792;2023-08-12T00:00:09;11.38;;;6.35;;
53309;SDS011;39197;53.200;5.792;2023-08-12T00:02:43;10.80;;;5.95;;
53309;SDS011;39197;53.200;5.792;2023-08-12T00:05:10;9.60;;;5.60;;
53309;SDS011;39197;53.200;5.792;2023-08-12T00:07:36;12.45;;;6.28;;
53309;SDS011;39197;53.200;5.792;2023-08-12T00:10:02;11.05;;;6.30;;
53309;SDS011;39197;53.200;5.792;2023-08-12T00:12:30;11.02;;;6.40;;
53309;SDS011;39197;53.200;5.792;2023-08-12T00:14:57;14.60;;;6.35;;
53309;SDS011;39197;53.200;5.792;2023-08-12T00:17:22;13.43;;;5.53;;
53309;SDS011;39197;53.200;5.792;2023-08-12T00:19:48;9.88;;;5.13;;
53309;SDS011;39197;53.200;5.792;2023-08-12T00:22:14;12.63;;;5.60;;
53309;SDS011;39197;53.200;5.792;2023-08-12T00:24:39;8.48;;;5.53;;
53309;SDS011;39197;53.200;5.792;2023-08-12T00:27:05;10.38;;;5.45;;
53309;SDS011;39197;53.200;5.792;2023-08-12T00:29:34;9.70;;;5.82;;
53309;SDS011;39197;53.200;5.792;2023-08-12T00:32:00;10.63;;;5.55;;
53309;SDS011;39197;53.200;5.792;2023-08-12T00:34:26;14.13;;;5.50;;
53309;SDS011;39197;53.200;5.792;2023-08-12T00:36:52;10.10;;;4.95;;
53309;SDS011;39197;53.200;5.792;2023-08-12T00:39:18;11.18;;;6.15;;
53309;SDS011;39197;53.200;5.792;2023-08-12T00:41:43;9.70;;;5.53;;
53309;SDS011;39197;53.200;5.792;2023-08-12T00:44:09;12.63;;;5.75;;
53309;SDS011;39197;53.200;5.792;2023-08-12T00:46:35;9.95;;;5.70;;
53309;SDS011;39197;53.200;5.792;2023-08-12T00:49:02;13.23;;;5.90;;
53309;SDS011;39197;53.200;5.792;2023-08-12T00:51:29;10.40;;;6.13;;
53309;SDS011;39197;53.200;5.792;2023-08-12T00:53:55;9.95;;;5.88;;
53309;SDS011;39197;53.200;5.792;2023-08-12T00:56:23;14.90;;;6.38;;
53309;SDS011;39197;53.200;5.792;2023-08-12T00:58:49;8.23;;;5.70;;
53309;SDS011;39197;53.200;5.792;2023-08-12T01:01:15;10.60;;;5.47;;
53309;SDS011;39197;53.200;5.792;2023-08-12T01:03:42;11.15;;;5.78;;
53309;SDS011;39197;53.200;5.792;2023-08-12T01:06:08;9.20;;;5.93;;
53309;SDS011;39197;53.200;5.792;2023-08-12T01:08:34;12.85;;;5.90;;
53309;SDS011;39197;53.200;5.792;2023-08-12T01:11:35;13.63;;;5.50;;
53309;SDS011;39197;53.200;5.792;2023-08-12T01:16:37;9.77;;;5.15;;
53309;SDS011;39197;53.200;5.792;2023-08-12T01:19:09;10.65;;;5.20;;
53309;SDS011;39197;53.200;5.792;2023-08-12T01:21:37;12.15;;;6.10;;
53309;SDS011;39197;53.200;5.792;2023-08-12T01:26:34;8.75;;;5.47;;
53309;SDS011;39197;53.200;5.792;2023-08-12T01:28:59;9.27;;;6.15;;
53309;SDS011;39197;53.200;5.792;2023-08-12T01:31:32;10.98;;;5.93;;
53309;SDS011;39197;53.200;5.792;2023-08-12T01:34:16;12.07;;;5.60;;
53309;SDS011;39197;53.200;5.792;2023-08-12T01:36:54;6.72;;;5.30;;
53309;SDS011;39197;53.200;5.792;2023-08-12T01:39:21;12.27;;;5.80;;
53309;SDS011;39197;53.200;5.792;2023-08-12T01:41:48;9.45;;;5.45;;
53309;SDS011;39197;53.200;5.792;2023-08-12T01:44:16;13.13;;;5.50;;
53309;SDS011;39197;53.200;5.792;2023-08-12T01:46:46;10.27;;;6.35;;
53309;SDS011;39197;53.200;5.792;2023-08-12T01:49:11;11.55;;;5.90;;
53309;SDS011;39197;53.200;5.792;2023-08-12T01:51:37;11.43;;;6.45;;
53309;SDS011;39197;53.200;5.792;2023-08-12T01:54:02;10.80;;;5.95;;
53309;SDS011;39197;53.200;5.792;2023-08-12T01:56:28;12.27;;;6.25;;
53309;SDS011;39197;53.200;5.792;2023-08-12T01:58:54;9.27;;;6.45;;
53309;SDS011;39197;53.200;5.792;2023-08-12T02:01:20;11.25;;;6.63;;
53309;SDS011;39197;53.200;5.792;2023-08-12T02:03:45;12.98;;;6.72;;
53309;SDS011;39197;53.200;5.792;2023-08-12T02:06:11;14.90;;;7.80;;
53309;SDS011;39197;53.200;5.792;2023-08-12T02:08:36;12.45;;;6.72;;
53309;SDS011;39197;53.200;5.792;2023-08-12T02:11:02;12.90;;;7.00;;
53309;SDS011;39197;53.200;5.792;2023-08-12T02:13:28;9.85;;;6.93;;
53309;SDS011;39197;53.200;5.792;2023-08-12T02:15:54;11.70;;;7.60;;
53309;SDS011;39197;53.200;5.792;2023-08-12T02:18:20;12.77;;;7.57;;
53309;SDS011;39197;53.200;5.792;2023-08-12T02:20:48;10.63;;;7.45;;
53309;SDS011;39197;53.200;5.792;2023-08-12T02:23:14;12.32;;;7.47;;
53309;SDS011;39197;53.200;5.792;2023-08-12T02:25:40;9.18;;;6.50;;
53309;SDS011;39197;53.200;5.792;2023-08-12T02:28:05;10.02;;;7.45;;
53309;SDS011;39197;53.200;5.792;2023-08-12T02:30:31;10.90;;;6.80;;
53309;SDS011;39197;53.200;5.792;2023-08-12T02:32:58;11.57;;;7.45;;
53309;SDS011;39197;53.200;5.792;2023-08-12T02:35:23;14.15;;;7.68;;
53309;SDS011;39197;53.200;5.792;2023-08-12T02:37:49;13.80;;;7.50;;
53309;SDS011;39197;53.200;5.792;2023-08-12T02:40:15;11.23;;;7.57;;
53309;SDS011;39197;53.200;5.792;2023-08-12T02:42:40;12.38;;;7.32;;
53309;SDS011;39197;53.200;5.792;2023-08-12T02:45:06;10.70;;;7.03;;
53309;SDS011;39197;53.200;5.792;2023-08-12T02:47:32;10.23;;;7.63;;
53309;SDS011;39197;53.200;5.792;2023-08-12T02:49:57;12.32;;;8.07;;
53309;SDS011;39197;53.200;5.792;2023-08-12T02:52:23;15.73;;;8.85;;
53309;SDS011;39197;53.200;5.792;2023-08-12T02:54:49;10.82;;;8.10;;
53309;SDS011;39197;53.200;5.792;2023-08-12T02:57:15;14.65;;;7.57;;
53309;SDS011;39197;53.200;5.792;2023-08-12T02:59:40;13.60;;;7.85;;
53309;SDS011;39197;53.200;5.792;2023-08-12T03:02:06;13.55;;;7.68;;
53309;SDS011;39197;53.200;5.792;2023-08-12T03:04:32;12.27;;;8.32;;
53309;SDS011;39197;53.200;5.792;2023-08-12T03:06:57;13.48;;;6.88;;
53309;SDS011;39197;53.200;5.792;2023-08-12T03:09:23;15.10;;;7.55;;
53309;SDS011;39197;53.200;5.792;2023-08-12T03:11:48;13.18;;;7.80;;
53309;SDS011;39197;53.200;5.792;2023-08-12T03:14:14;14.57;;;8.05;;
53309;SDS011;39197;53.200;5.792;2023-08-12T03:16:40;8.57;;;6.30;;
53309;SDS011;39197;53.200;5.792;2023-08-12T03:19:06;9.65;;;7.13;;
53309;SDS011;39197;53.200;5.792;2023-08-12T03:21:31;10.48;;;7.30;;
53309;SDS011;39197;53.200;5.792;2023-08-12T03:23:57;16.58;;;8.02;;
53309;SDS011;39197;53.200;5.792;2023-08-12T03:26:23;16.35;;;8.52;;
53309;SDS011;39197;53.200;5.792;2023-08-12T03:28:48;15.73;;;7.55;;
53309;SDS011;39197;53.200;5.792;2023-08-12T03:31:14;11.18;;;7.68;;
53309;SDS011;39197;53.200;5.792;2023-08-12T03:33:39;14.38;;;7.40;;
53309;SDS011;39197;53.200;5.792;2023-08-12T03:36:05;13.63;;;8.82;;
53309;SDS011;39197;53.200;5.792;2023-08-12T03:38:31;12.57;;;7.85;;
53309;SDS011;39197;53.200;5.792;2023-08-12T03:40:57;10.05;;;7.57;;
53309;SDS011;39197;53.200;5.792;2023-08-12T03:43:22;12.23;;;8.23;;
53309;SDS011;39197;53.200;5.792;2023-08-12T03:45:48;13.43;;;8.27;;
53309;SDS011;39197;53.200;5.792;2023-08-12T03:48:14;10.93;;;8.18;;
53309;SDS011;39197;53.200;5.792;2023-08-12T03:50:40;14.18;;;8.38;;
53309;SDS011;39197;53.200;5.792;2023-08-12T03:53:07;11.23;;;8.40;;
53309;SDS011;39197;53.200;5.792;2023-08-12T03:55:34;14.63;;;9.18;;
53309;SDS011;39197;53.200;5.792;2023-08-12T03:58:00;16.85;;;8.45;;
53309;SDS011;39197;53.200;5.792;2023-08-12T04:00:26;11.63;;;9.18;;
53309;SDS011;39197;53.200;5.792;2023-08-12T04:02:52;12.43;;;9.18;;
53309;SDS011;39197;53.200;5.792;2023-08-12T04:05:17;16.90;;;9.18;;
53309;SDS011;39197;53.200;5.792;2023-08-12T04:07:43;14.52;;;8.55;;
53309;SDS011;39197;53.200;5.792;2023-08-12T04:10:09;14.10;;;9.05;;
53309;SDS011;39197;53.200;5.792;2023-08-12T04:12:35;11.45;;;8.65;;
53309;SDS011;39197;53.200;5.792;2023-08-12T04:15:01;10.82;;;8.13;;
53309;SDS011;39197;53.200;5.792;2023-08-12T04:17:29;13.23;;;8.60;;
53309;SDS011;39197;53.200;5.792;2023-08-12T04:19:55;11.27;;;7.97;;
53309;SDS011;39197;53.200;5.792;2023-08-12T04:22:20;11.73;;;7.95;;
53309;SDS011;39197;53.200;5.792;2023-08-12T04:24:46;14.95;;;9.48;;
53309;SDS011;39197;53.200;5.792;2023-08-12T04:27:12;13.60;;;8.45;;
53309;SDS011;39197;53.200;5.792;2023-08-12T04:29:38;14.10;;;9.05;;
53309;SDS011;39197;53.200;5.792;2023-08-12T04:32:03;13.95;;;8.75;;
53309;SDS011;39197;53.200;5.792;2023-08-12T04:34:29;12.88;;;8.48;;
53309;SDS011;39197;53.200;5.792;2023-08-12T04:36:55;13.77;;;8.25;;
53309;SDS011;39197;53.200;5.792;2023-08-12T04:39:20;15.95;;;8.15;;
53309;SDS011;39197;53.200;5.792;2023-08-12T04:41:47;18.15;;;9.02;;
53309;SDS011;39197;53.200;5.792;2023-08-12T04:44:13;11.60;;;9.07;;
53309;SDS011;39197;53.200;5.792;2023-08-12T04:46:39;14.30;;;8.65;;
53309;SDS011;39197;53.200;5.792;2023-08-12T04:49:04;12.77;;;8.70;;
53309;SDS011;39197;53.200;5.792;2023-08-12T04:51:30;14.43;;;8.73;;
53309;SDS011;39197;53.200;5.792;2023-08-12T04:53:56;13.75;;;9.35;;
53309;SDS011;39197;53.200;5.792;2023-08-12T04:56:22;10.48;;;9.10;;
53309;SDS011;39197;53.200;5.792;2023-08-12T04:58:49;15.02;;;9.05;;
53309;SDS011;39197;53.200;5.792;2023-08-12T05:01:14;14.35;;;7.97;;
53309;SDS011;39197;53.200;5.792;2023-08-12T05:03:40;15.23;;;8.43;;
53309;SDS011;39197;53.200;5.792;2023-08-12T05:06:06;10.50;;;7.60;;
53309;SDS011;39197;53.200;5.792;2023-08-12T05:08:32;14.57;;;8.63;;
53309;SDS011;39197;53.200;5.792;2023-08-12T05:10:57;16.58;;;7.88;;
53309;SDS011;39197;53.200;5.792;2023-08-12T05:13:23;18.00;;;8.90;;
53309;SDS011;39197;53.200;5.792;2023-08-12T05:15:49;14.15;;;8.55;;
53309;SDS011;39197;53.200;5.792;2023-08-12T05:18:15;11.35;;;7.97;;
53309;SDS011;39197;53.200;5.792;2023-08-12T05:20:41;18.27;;;8.85;;
53309;SDS011;39197;53.200;5.792;2023-08-12T05:23:07;17.38;;;8.20;;
53309;SDS011;39197;53.200;5.792;2023-08-12T05:25:33;11.85;;;6.78;;
53309;SDS011;39197;53.200;5.792;2023-08-12T05:27:59;14.20;;;7.88;;
53309;SDS011;39197;53.200;5.792;2023-08-12T05:30:24;12.30;;;7.47;;
53309;SDS011;39197;53.200;5.792;2023-08-12T05:32:50;12.10;;;7.57;;
53309;SDS011;39197;53.200;5.792;2023-08-12T05:35:16;12.30;;;8.48;;
53309;SDS011;39197;53.200;5.792;2023-08-12T05:37:41;12.80;;;8.18;;
53309;SDS011;39197;53.200;5.792;2023-08-12T05:40:10;14.77;;;8.05;;
53309;SDS011;39197;53.200;5.792;2023-08-12T05:42:36;19.65;;;8.45;;
53309;SDS011;39197;53.200;5.792;2023-08-12T05:45:02;14.70;;;8.30;;
53309;SDS011;39197;53.200;5.792;2023-08-12T05:47:29;13.48;;;8.57;;
53309;SDS011;39197;53.200;5.792;2023-08-12T05:49:55;16.25;;;8.57;;
53309;SDS011;39197;53.200;5.792;2023-08-12T05:52:20;15.63;;;8.32;;
53309;SDS011;39197;53.200;5.792;2023-08-12T05:54:46;15.32;;;9.40;;
53309;SDS011;39197;53.200;5.792;2023-08-12T05:57:12;14.90;;;9.27;;
53309;SDS011;39197;53.200;5.792;2023-08-12T05:59:38;21.48;;;9.65;;
53309;SDS011;39197;53.200;5.792;2023-08-12T06:02:04;17.77;;;9.95;;
53309;SDS011;39197;53.200;5.792;2023-08-12T06:04:30;14.32;;;9.48;;
53309;SDS011;39197;53.200;5.792;2023-08-12T06:06:56;16.38;;;9.77;;
53309;SDS011;39197;53.200;5.792;2023-08-12T06:09:21;16.65;;;9.10;;
53309;SDS011;39197;53.200;5.792;2023-08-12T06:11:47;17.38;;;10.27;;
53309;SDS011;39197;53.200;5.792;2023-08-12T06:14:13;21.70;;;11.15;;
53309;SDS011;39197;53.200;5.792;2023-08-12T06:16:38;17.50;;;10.20;;
53309;SDS011;39197;53.200;5.792;2023-08-12T06:19:04;16.45;;;10.40;;
53309;SDS011;39197;53.200;5.792;2023-08-12T06:21:30;14.82;;;10.40;;
53309;SDS011;39197;53.200;5.792;2023-08-12T06:23:56;17.17;;;10.88;;
53309;SDS011;39197;53.200;5.792;2023-08-12T06:26:21;20.48;;;11.88;;
53309;SDS011;39197;53.200;5.792;2023-08-12T06:28:47;18.90;;;11.27;;
53309;SDS011;39197;53.200;5.792;2023-08-12T06:31:13;18.58;;;12.35;;
53309;SDS011;39197;53.200;5.792;2023-08-12T06:33:38;19.63;;;12.50;;
53309;SDS011;39197;53.200;5.792;2023-08-12T06:36:04;18.88;;;12.65;;
53309;SDS011;39197;53.200;5.792;2023-08-12T06:38:30;15.93;;;10.95;;
53309;SDS011;39197;53.200;5.792;2023-08-12T06:40:56;18.63;;;11.60;;
53309;SDS011;39197;53.200;5.792;2023-08-12T06:43:22;20.27;;;11.73;;
53309;SDS011;39197;53.200;5.792;2023-08-12T06:45:47;18.98;;;13.25;;
53309;SDS011;39197;53.200;5.792;2023-08-12T06:48:13;18.50;;;12.30;;
53309;SDS011;39197;53.200;5.792;2023-08-12T06:50:38;22.33;;;12.65;;
53309;SDS011;39197;53.200;5.792;2023-08-12T06:53:04;20.70;;;12.60;;
53309;SDS011;39197;53.200;5.792;2023-08-12T06:55:30;22.38;;;12.15;;
53309;SDS011;39197;53.200;5.792;2023-08-12T06:57:55;18.15;;;12.05;;
53309;SDS011;39197;53.200;5.792;2023-08-12T07:00:21;18.88;;;11.55;;
53309;SDS011;39197;53.200;5.792;2023-08-12T07:02:47;23.02;;;13.07;;
53309;SDS011;39197;53.200;5.792;2023-08-12T07:05:12;19.77;;;12.63;;
53309;SDS011;39197;53.200;5.792;2023-08-12T07:07:38;22.08;;;14.15;;
53309;SDS011;39197;53.200;5.792;2023-08-12T07:10:04;19.95;;;13.40;;
53309;SDS011;39197;53.200;5.792;2023-08-12T07:12:31;17.05;;;13.63;;
53309;SDS011;39197;53.200;5.792;2023-08-12T07:14:57;19.50;;;12.95;;
53309;SDS011;39197;53.200;5.792;2023-08-12T07:17:23;23.20;;;14.05;;
53309;SDS011;39197;53.200;5.792;2023-08-12T07:19:49;20.08;;;13.48;;
53309;SDS011;39197;53.200;5.792;2023-08-12T07:22:14;21.67;;;13.25;;
53309;SDS011;39197;53.200;5.792;2023-08-12T07:24:44;18.60;;;12.30;;
53309;SDS011;39197;53.200;5.792;2023-08-12T07:27:10;19.30;;;12.50;;
53309;SDS011;39197;53.200;5.792;2023-08-12T07:29:36;16.02;;;14.32;;
53309;SDS011;39197;53.200;5.792;2023-08-12T07:32:01;19.40;;;14.43;;
53309;SDS011;39197;53.200;5.792;2023-08-12T07:34:27;18.20;;;13.88;;
53309;SDS011;39197;53.200;5.792;2023-08-12T07:36:53;21.80;;;14.02;;
53309;SDS011;39197;53.200;5.792;2023-08-12T07:39:18;21.05;;;13.45;;
53309;SDS011;39197;53.200;5.792;2023-08-12T07:41:44;25.30;;;15.43;;
53309;SDS011;39197;53.200;5.792;2023-08-12T07:44:10;23.13;;;15.73;;
53309;SDS011;39197;53.200;5.792;2023-08-12T07:46:35;23.42;;;16.48;;
53309;SDS011;39197;53.200;5.792;2023-08-12T07:49:01;26.55;;;16.85;;
53309;SDS011;39197;53.200;5.792;2023-08-12T07:51:27;25.23;;;16.40;;
53309;SDS011;39197;53.200;5.792;2023-08-12T07:53:52;28.27;;;17.02;;
53309;SDS011;39197;53.200;5.792;2023-08-12T07:56:18;26.10;;;17.73;;
53309;SDS011;39197;53.200;5.792;2023-08-12T07:58:43;23.67;;;16.30;;
53309;SDS011;39197;53.200;5.792;2023-08-12T08:01:10;26.75;;;18.33;;
53309;SDS011;39197;53.200;5.792;2023-08-12T08:03:36;26.10;;;19.35;;
53309;SDS011;39197;53.200;5.792;2023-08-12T08:06:02;30.70;;;19.75;;
53309;SDS011;39197;53.200;5.792;2023-08-12T08:08:27;26.55;;;17.90;;
53309;SDS011;39197;53.200;5.792;2023-08-12T08:10:53;30.35;;;19.25;;
53309;SDS011;39197;53.200;5.792;2023-08-12T08:13:19;27.92;;;18.55;;
53309;SDS011;39197;53.200;5.792;2023-08-12T08:15:45;29.42;;;21.30;;
53309;SDS011;39197;53.200;5.792;2023-08-12T08:18:11;28.17;;;20.05;;
53309;SDS011;39197;53.200;5.792;2023-08-12T08:20:36;30.35;;;22.23;;
53309;SDS011;39197;53.200;5.792;2023-08-12T08:23:02;32.05;;;20.40;;
53309;SDS011;39197;53.200;5.792;2023-08-12T08:25:28;30.50;;;20.75;;
53309;SDS011;39197;53.200;5.792;2023-08-12T08:27:54;35.38;;;22.02;;
53309;SDS011;39197;53.200;5.792;2023-08-12T08:30:19;37.08;;;23.00;;
53309;SDS011;39197;53.200;5.792;2023-08-12T08:32:46;29.27;;;19.80;;
53309;SDS011;39197;53.200;5.792;2023-08-12T08:35:11;22.15;;;17.00;;
53309;SDS011;39197;53.200;5.792;2023-08-12T08:37:37;25.52;;;18.48;;
53309;SDS011;39197;53.200;5.792;2023-08-12T08:40:03;25.10;;;20.02;;
53309;SDS011;39197;53.200;5.792;2023-08-12T08:42:29;24.60;;;19.08;;
53309;SDS011;39197;53.200;5.792;2023-08-12T08:44:57;27.23;;;20.90;;
53309;SDS011;39197;53.200;5.792;2023-08-12T08:47:26;25.38;;;19.45;;
53309;SDS011;39197;53.200;5.792;2023-08-12T08:49:55;23.65;;;18.05;;
53309;SDS011;39197;53.200;5.792;2023-08-12T08:52:22;22.83;;;17.15;;
53309;SDS011;39197;53.200;5.792;2023-08-12T08:54:48;19.92;;;15.73;;
53309;SDS011;39197;53.200;5.792;2023-08-12T08:57:15;23.00;;;17.90;;
53309;SDS011;39197;53.200;5.792;2023-08-12T08:59:41;19.13;;;15.73;;
53309;SDS011;39197;53.200;5.792;2023-08-12T09:02:09;21.67;;;16.85;;
53309;SDS011;39197;53.200;5.792;2023-08-12T09:04:41;21.42;;;16.80;;
53309;SDS011;39197;53.200;5.792;2023-08-12T09:07:07;22.40;;;19.80;;
53309;SDS011;39197;53.200;5.792;2023-08-12T09:09:34;21.70;;;18.15;;
53309;SDS011;39197;53.200;5.792;2023-08-12T09:12:00;20.73;;;17.08;;
53309;SDS011;39197;53.200;5.792;2023-08-12T09:14:27;23.67;;;18.73;;
53309;SDS011;39197;53.200;5.792;2023-08-12T09:16:54;26.15;;;20.38;;
53309;SDS011;39197;53.200;5.792;2023-08-12T09:19:20;25.63;;;21.35;;
53309;SDS011;39197;53.200;5.792;2023-08-12T09:21:51;31.75;;;22.17;;
53309;SDS011;39197;53.200;5.792;2023-08-12T09:24:23;28.45;;;21.98;;
53309;SDS011;39197;53.200;5.792;2023-08-12T09:26:55;28.48;;;22.80;;
53309;SDS011;39197;53.200;5.792;2023-08-12T09:29:31;34.55;;;25.65;;
53309;SDS011;39197;53.200;5.792;2023-08-12T09:32:14;36.72;;;27.00;;
53309;SDS011;39197;53.200;5.792;2023-08-12T09:34:47;22.88;;;20.42;;
53309;SDS011;39197;53.200;5.792;2023-08-12T09:37:14;23.90;;;19.52;;
53309;SDS011;39197;53.200;5.792;2023-08-12T09:39:41;13.23;;;8.25;;
53309;SDS011;39197;53.200;5.792;2023-08-12T09:42:07;10.77;;;6.10;;
53309;SDS011;39197;53.200;5.792;2023-08-12T09:44:37;11.68;;;7.28;;
53309;SDS011;39197;53.200;5.792;2023-08-12T09:47:03;8.90;;;4.75;;
53309;SDS011;39197;53.200;5.792;2023-08-12T09:49:31;11.52;;;4.50;;
53309;SDS011;39197;53.200;5.792;2023-08-12T09:51:56;10.38;;;4.90;;
53309;SDS011;39197;53.200;5.792;2023-08-12T09:54:22;4.15;;;2.33;;
53309;SDS011;39197;53.200;5.792;2023-08-12T09:56:54;6.15;;;2.10;;
53309;SDS011;39197;53.200;5.792;2023-08-12T09:59:22;6.43;;;1.80;;
53309;SDS011;39197;53.200;5.792;2023-08-12T10:01:49;7.22;;;2.25;;
53309;SDS011;39197;53.200;5.792;2023-08-12T10:04:17;7.10;;;2.40;;
53309;SDS011;39197;53.200;5.792;2023-08-12T10:06:46;8.85;;;3.83;;
53309;SDS011;39197;53.200;5.792;2023-08-12T10:09:12;4.93;;;3.00;;
53309;SDS011;39197;53.200;5.792;2023-08-12T10:11:41;9.82;;;3.65;;
53309;SDS011;39197;53.200;5.792;2023-08-12T10:14:11;8.77;;;2.30;;
53309;SDS011;39197;53.200;5.792;2023-08-12T10:16:38;5.00;;;2.08;;
53309;SDS011;39197;53.200;5.792;2023-08-12T10:19:05;6.38;;;1.40;;
53309;SDS011;39197;53.200;5.792;2023-08-12T10:21:31;6.72;;;2.08;;
53309;SDS011;39197;53.200;5.792;2023-08-12T10:23:58;7.75;;;2.10;;
53309;SDS011;39197;53.200;5.792;2023-08-12T10:26:27;8.57;;;2.10;;
53309;SDS011;39197;53.200;5.792;2023-08-12T10:28:54;8.00;;;1.98;;
53309;SDS011;39197;53.200;5.792;2023-08-12T10:31:20;7.28;;;1.80;;
53309;SDS011;39197;53.200;5.792;2023-08-12T10:33:45;7.13;;;1.92;;
53309;SDS011;39197;53.200;5.792;2023-08-12T10:36:15;6.22;;;1.63;;
53309;SDS011;39197;53.200;5.792;2023-08-12T10:38:41;11.10;;;2.67;;
53309;SDS011;39197;53.200;5.792;2023-08-12T10:41:22;6.22;;;1.50;;
53309;SDS011;39197;53.200;5.792;2023-08-12T10:43:56;10.35;;;1.88;;
53309;SDS011;39197;53.200;5.792;2023-08-12T10:46:35;6.90;;;1.50;;
53309;SDS011;39197;53.200;5.792;2023-08-12T10:51:53;7.40;;;2.10;;
53309;SDS011;39197;53.200;5.792;2023-08-12T11:02:33;7.47;;;2.92;;
53309;SDS011;39197;53.200;5.792;2023-08-12T11:05:03;11.23;;;2.30;;
53309;SDS011;39197;53.200;5.792;2023-08-12T11:07:32;9.00;;;2.03;;
53309;SDS011;39197;53.200;5.792;2023-08-12T11:10:24;7.53;;;2.13;;
53309;SDS011;39197;53.200;5.792;2023-08-12T11:15:17;8.75;;;2.38;;
53309;SDS011;39197;53.200;5.792;2023-08-12T11:18:04;10.13;;;2.33;;
53309;SDS011;39197;53.200;5.792;2023-08-12T11:20:31;12.60;;;3.38;;
53309;SDS011;39197;53.200;5.792;2023-08-12T11:22:57;10.40;;;2.60;;
53309;SDS011;39197;53.200;5.792;2023-08-12T11:25:29;5.97;;;2.15;;
53309;SDS011;39197;53.200;5.792;2023-08-12T11:27:56;10.05;;;2.22;;
53309;SDS011;39197;53.200;5.792;2023-08-12T11:30:22;8.88;;;2.05;;
53309;SDS011;39197;53.200;5.792;2023-08-12T11:32:49;5.97;;;1.70;;
53309;SDS011;39197;53.200;5.792;2023-08-12T11:35:17;6.20;;;1.00;;
53309;SDS011;39197;53.200;5.792;2023-08-12T11:37:47;4.82;;;1.05;;
53309;SDS011;39197;53.200;5.792;2023-08-12T11:40:15;7.55;;;1.92;;
53309;SDS011;39197;53.200;5.792;2023-08-12T11:42:42;5.20;;;1.20;;
53309;SDS011;39197;53.200;5.792;2023-08-12T11:45:10;5.82;;;1.10;;
53309;SDS011;39197;53.200;5.792;2023-08-12T11:47:36;5.55;;;1.30;;
53309;SDS011;39197;53.200;5.792;2023-08-12T11:50:06;4.70;;;1.10;;
53309;SDS011;39197;53.200;5.792;2023-08-12T11:52:33;4.95;;;1.05;;
53309;SDS011;39197;53.200;5.792;2023-08-12T11:55:00;6.95;;;1.42;;
53309;SDS011;39197;53.200;5.792;2023-08-12T11:57:27;5.53;;;1.70;;
53309;SDS011;39197;53.200;5.792;2023-08-12T12:00:00;6.97;;;1.80;;
53309;SDS011;39197;53.200;5.792;2023-08-12T12:02:27;8.88;;;2.45;;
53309;SDS011;39197;53.200;5.792;2023-08-12T12:04:53;11.38;;;2.50;;
53309;SDS011;39197;53.200;5.792;2023-08-12T12:07:23;7.68;;;1.95;;
53309;SDS011;39197;53.200;5.792;2023-08-12T12:09:50;6.75;;;2.33;;
53309;SDS011;39197;53.200;5.792;2023-08-12T12:12:17;8.70;;;2.58;;
53309;SDS011;39197;53.200;5.792;2023-08-12T12:14:46;8.93;;;2.15;;
53309;SDS011;39197;53.200;5.792;2023-08-12T12:17:14;10.60;;;2.65;;
53309;SDS011;39197;53.200;5.792;2023-08-12T12:19:40;10.18;;;1.80;;
53309;SDS011;39197;53.200;5.792;2023-08-12T12:22:07;11.50;;;2.47;;
53309;SDS011;39197;53.200;5.792;2023-08-12T12:24:43;10.23;;;2.42;;
53309;SDS011;39197;53.200;5.792;2023-08-12T12:27:12;9.90;;;2.10;;
53309;SDS011;39197;53.200;5.792;2023-08-12T12:29:38;5.25;;;1.45;;
53309;SDS011;39197;53.200;5.792;2023-08-12T12:32:04;7.18;;;1.80;;
53309;SDS011;39197;53.200;5.792;2023-08-12T12:34:30;8.93;;;1.88;;
53309;SDS011;39197;53.200;5.792;2023-08-12T12:36:56;6.25;;;1.63;;
53309;SDS011;39197;53.200;5.792;2023-08-12T12:39:22;10.07;;;2.13;;
53309;SDS011;39197;53.200;5.792;2023-08-12T12:41:48;6.90;;;1.80;;
53309;SDS011;39197;53.200;5.792;2023-08-12T12:44:14;8.48;;;2.05;;
53309;SDS011;39197;53.200;5.792;2023-08-12T12:46:40;9.77;;;2.78;;
53309;SDS011;39197;53.200;5.792;2023-08-12T12:49:08;10.38;;;2.85;;
53309;SDS011;39197;53.200;5.792;2023-08-12T12:51:34;8.98;;;1.48;;
53309;SDS011;39197;53.200;5.792;2023-08-12T12:54:00;7.20;;;1.58;;
53309;SDS011;39197;53.200;5.792;2023-08-12T12:56:26;9.93;;;1.73;;
53309;SDS011;39197;53.200;5.792;2023-08-12T12:58:51;7.78;;;2.05;;
53309;SDS011;39197;53.200;5.792;2023-08-12T13:01:17;8.60;;;1.60;;
53309;SDS011;39197;53.200;5.792;2023-08-12T13:03:43;10.30;;;1.95;;
53309;SDS011;39197;53.200;5.792;2023-08-12T13:06:08;12.13;;;1.40;;
53309;SDS011;39197;53.200;5.792;2023-08-12T13:08:34;5.97;;;1.02;;
53309;SDS011;39197;53.200;5.792;2023-08-12T13:11:00;12.18;;;2.58;;
53309;SDS011;39197;53.200;5.792;2023-08-12T13:13:26;7.95;;;1.40;;
53309;SDS011;39197;53.200;5.792;2023-08-12T13:15:51;6.55;;;1.15;;
53309;SDS011;39197;53.200;5.792;2023-08-12T13:18:17;9.85;;;1.88;;
53309;SDS011;39197;53.200;5.792;2023-08-12T13:20:43;9.90;;;2.17;;
53309;SDS011;39197;53.200;5.792;2023-08-12T13:23:09;7.78;;;1.60;;
53309;SDS011;39197;53.200;5.792;2023-08-12T13:25:35;8.30;;;1.88;;
53309;SDS011;39197;53.200;5.792;2023-08-12T13:28:01;7.60;;;1.83;;
53309;SDS011;39197;53.200;5.792;2023-08-12T13:30:28;9.02;;;1.73;;
53309;SDS011;39197;53.200;5.792;2023-08-12T13:32:55;8.98;;;2.35;;
53309;SDS011;39197;53.200;5.792;2023-08-12T13:35:22;10.00;;;2.30;;
53309;SDS011;39197;53.200;5.792;2023-08-12T13:37:49;7.47;;;2.28;;
53309;SDS011;39197;53.200;5.792;2023-08-12T13:40:16;7.43;;;1.50;;
53309;SDS011;39197;53.200;5.792;2023-08-12T13:42:42;7.32;;;1.30;;
53309;SDS011;39197;53.200;5.792;2023-08-12T13:45:09;9.35;;;2.13;;
53309;SDS011;39197;53.200;5.792;2023-08-12T13:47:36;7.15;;;1.30;;
53309;SDS011;39197;53.200;5.792;2023-08-12T13:50:02;7.63;;;1.40;;
53309;SDS011;39197;53.200;5.792;2023-08-12T13:52:28;9.00;;;1.60;;
53309;SDS011;39197;53.200;5.792;2023-08-12T13:54:53;8.27;;;2.30;;
53309;SDS011;39197;53.200;5.792;2023-08-12T13:57:19;7.43;;;1.70;;
53309;SDS011;39197;53.200;5.792;2023-08-12T13:59:45;9.82;;;1.65;;
53309;SDS011;39197;53.200;5.792;2023-08-12T14:02:12;8.35;;;1.40;;
53309;SDS011;39197;53.200;5.792;2023-08-12T14:04:41;8.73;;;2.03;;
53309;SDS011;39197;53.200;5.792;2023-08-12T14:07:07;8.13;;;1.70;;
53309;SDS011;39197;53.200;5.792;2023-08-12T14:09:33;10.40;;;1.55;;
53309;SDS011;39197;53.200;5.792;2023-08-12T14:11:59;5.40;;;0.98;;
53309;SDS011;39197;53.200;5.792;2023-08-12T14:14:25;10.88;;;2.50;;
53309;SDS011;39197;53.200;5.792;2023-08-12T14:16:54;9.25;;;1.95;;
53309;SDS011;39197;53.200;5.792;2023-08-12T14:19:20;9.13;;;2.00;;
53309;SDS011;39197;53.200;5.792;2023-08-12T14:21:46;8.98;;;2.00;;
53309;SDS011;39197;53.200;5.792;2023-08-12T14:24:12;8.82;;;1.85;;
53309;SDS011;39197;53.200;5.792;2023-08-12T14:26:38;13.65;;;2.35;;
53309;SDS011;39197;53.200;5.792;2023-08-12T14:29:04;8.95;;;3.38;;
53309;SDS011;39197;53.200;5.792;2023-08-12T14:31:30;11.82;;;2.05;;
53309;SDS011;39197;53.200;5.792;2023-08-12T14:33:57;7.57;;;1.75;;
53309;SDS011;39197;53.200;5.792;2023-08-12T14:36:23;12.10;;;2.38;;
53309;SDS011;39197;53.200;5.792;2023-08-12T14:38:52;9.45;;;1.90;;
53309;SDS011;39197;53.200;5.792;2023-08-12T14:41:21;8.23;;;1.40;;
53309;SDS011;39197;53.200;5.792;2023-08-12T14:43:47;10.43;;;2.03;;
53309;SDS011;39197;53.200;5.792;2023-08-12T14:46:13;10.18;;;1.77;;
53309;SDS011;39197;53.200;5.792;2023-08-12T14:48:39;7.38;;;1.50;;
53309;SDS011;39197;53.200;5.792;2023-08-12T14:51:04;9.68;;;2.33;;